Airport View

Enter AWOS ICAO identifier for current METAR.

ex. KFNL

KMYV 191253Z AUTO 34010KT 10SM CLR 03/M04 A3020 RMK AO2 SLP232 T00331039

19 Feb 2019 13:27

Frequency: 118.475

Phone: 530-742-0695

Other Area AWOS: KBAB - KLHM - KSMF - KOVE

TAF KBAB 190305Z 1903/2009 33009KT 9999 SKC QNH3011INS BECMG 2002/2003 15009KT 9999 FEW100 QNH3006INS TX08/1921Z TNM01/1914Z